createdAt,value
2023-01-17T00:01:16.019Z,29.35
2023-01-17T00:04:21.444Z,29.25
2023-01-17T00:07:27.998Z,28.45
2023-01-17T00:10:23.044Z,28.02
2023-01-17T00:13:08.507Z,28.58
2023-01-17T00:15:54.308Z,27.17
2023-01-17T00:18:40.038Z,29.35
2023-01-17T00:21:44.852Z,28.17
2023-01-17T00:24:50.334Z,27.13
2023-01-17T00:27:36.430Z,29.08
2023-01-17T00:30:22.591Z,29.05
2023-01-17T00:33:08.585Z,29.38
2023-01-17T00:35:56.177Z,29.98
2023-01-17T00:38:42.445Z,28.52
2023-01-17T00:41:28.900Z,29.75
2023-01-17T00:44:33.951Z,28.48
2023-01-17T00:47:37.775Z,29.73
2023-01-17T00:50:41.918Z,28.63
2023-01-17T00:53:45.787Z,28.80
2023-01-17T00:56:49.693Z,31.05
2023-01-17T00:59:54.548Z,26.65
2023-01-17T01:02:59.905Z,29.08
2023-01-17T01:06:03.747Z,29.75
2023-01-17T01:09:07.783Z,27.77
2023-01-17T01:12:12.147Z,27.10
2023-01-17T01:15:16.881Z,27.90
2023-01-17T01:18:26.330Z,27.25
2023-01-17T01:21:31.733Z,28.92
2023-01-17T01:24:36.731Z,26.58
2023-01-17T01:27:40.678Z,29.10
2023-01-17T01:30:44.632Z,28.42
2023-01-17T01:33:30.341Z,28.70
2023-01-17T01:36:15.866Z,27.70
2023-01-17T01:39:01.644Z,28.17
2023-01-17T01:41:47.580Z,27.48
2023-01-17T01:44:59.781Z,28.35
2023-01-17T01:47:47.471Z,26.60
2023-01-17T01:50:37.552Z,26.25
2023-01-17T01:53:23.684Z,27.23
2023-01-17T01:56:13.181Z,29.17
2023-01-17T01:59:03.932Z,28.25
2023-01-17T02:01:58.079Z,26.67
2023-01-17T02:04:45.486Z,27.63
2023-01-17T02:07:39.431Z,29.20
2023-01-17T02:10:25.392Z,27.35
2023-01-17T02:13:13.355Z,27.00
2023-01-17T02:16:27.314Z,28.80
2023-01-17T02:19:35.412Z,25.42
2023-01-17T02:22:55.591Z,25.55
2023-01-17T02:26:12.410Z,26.50
2023-01-17T02:29:36.215Z,25.50
2023-01-17T02:32:56.335Z,27.60
2023-01-17T02:36:04.595Z,28.85
2023-01-17T02:39:15.488Z,27.77
2023-01-17T02:42:14.454Z,27.15
2023-01-17T02:45:03.329Z,28.75
2023-01-17T02:47:49.566Z,28.10
2023-01-17T02:51:03.417Z,28.73
2023-01-17T02:53:58.732Z,30.25
2023-01-17T02:57:05.563Z,28.88
2023-01-17T03:00:19.940Z,29.03
2023-01-17T03:03:20.567Z,28.63
2023-01-17T03:06:14.741Z,30.25
2023-01-17T03:09:01.375Z,30.77
2023-01-17T03:11:46.991Z,29.42
2023-01-17T03:14:32.305Z,32.13
2023-01-17T03:17:19.098Z,33.03
2023-01-17T03:20:05.161Z,34.23
2023-01-17T03:22:51.354Z,34.42
2023-01-17T03:25:37.548Z,34.05
2023-01-17T03:28:23.730Z,35.42
2023-01-17T03:31:09.275Z,35.08
2023-01-17T03:33:55.301Z,34.63
2023-01-17T03:36:41.027Z,33.55
2023-01-17T03:39:27.313Z,31.33
2023-01-17T03:42:12.996Z,30.67
2023-01-17T03:44:58.899Z,30.95
2023-01-17T03:47:44.697Z,29.48
2023-01-17T03:50:30.132Z,28.48
2023-01-17T03:53:15.593Z,27.58
2023-01-17T03:56:01.027Z,25.73
2023-01-17T03:58:46.912Z,25.95
2023-01-17T04:01:32.691Z,27.63
2023-01-17T04:04:18.072Z,28.85
2023-01-17T04:07:03.935Z,26.98
2023-01-17T04:09:50.049Z,24.57
2023-01-17T04:12:36.071Z,27.77
2023-01-17T04:15:22.365Z,26.43
2023-01-17T04:18:07.918Z,26.83
2023-01-17T04:20:53.577Z,25.17
2023-01-17T04:23:39.606Z,25.17
2023-01-17T04:26:25.611Z,25.70
2023-01-17T04:29:12.218Z,26.93
2023-01-17T04:31:57.964Z,28.85
2023-01-17T04:34:44.185Z,25.52
2023-01-17T04:37:29.822Z,26.10
2023-01-17T04:40:15.562Z,26.20
2023-01-17T04:43:01.555Z,24.88
2023-01-17T04:45:48.029Z,27.00
2023-01-17T04:48:34.022Z,25.80
2023-01-17T04:51:20.319Z,24.27
2023-01-17T04:54:05.759Z,24.50
2023-01-17T04:56:51.283Z,25.92
2023-01-17T04:59:36.848Z,25.17
2023-01-17T05:02:23.089Z,23.88
2023-01-17T05:05:09.260Z,25.15
2023-01-17T05:07:56.345Z,25.77
2023-01-17T05:10:42.079Z,27.63
2023-01-17T05:13:28.247Z,27.70
2023-01-17T05:16:17.231Z,28.00
2023-01-17T05:19:02.889Z,28.43
2023-01-17T05:21:48.771Z,29.65
2023-01-17T05:24:34.421Z,28.80
2023-01-17T05:27:21.330Z,30.92
2023-01-17T05:30:07.475Z,30.23
2023-01-17T05:32:56.106Z,27.67
2023-01-17T05:35:41.718Z,31.85
2023-01-17T05:38:27.043Z,30.13
2023-01-17T05:41:12.991Z,28.00
2023-01-17T05:43:59.468Z,29.42
2023-01-17T05:46:45.556Z,28.27
2023-01-17T05:49:31.110Z,29.45
2023-01-17T05:52:17.120Z,28.17
2023-01-17T05:55:02.921Z,27.48
2023-01-17T05:57:48.958Z,28.48
2023-01-17T06:00:35.395Z,29.08
2023-01-17T06:03:21.552Z,30.63
2023-01-17T06:06:07.324Z,29.57
2023-01-17T06:08:53.088Z,27.80
2023-01-17T06:11:39.149Z,26.15
2023-01-17T06:14:25.048Z,27.65
2023-01-17T06:17:10.503Z,26.80
2023-01-17T06:19:56.431Z,26.92
2023-01-17T06:22:42.459Z,24.95
2023-01-17T06:25:28.986Z,24.73
2023-01-17T06:28:17.193Z,26.75
2023-01-17T06:31:07.942Z,27.30
2023-01-17T06:33:54.125Z,28.80
2023-01-17T06:36:40.363Z,28.30
2023-01-17T06:39:26.489Z,28.55
2023-01-17T06:42:12.662Z,30.30
2023-01-17T06:44:58.341Z,30.08
2023-01-17T06:47:43.986Z,27.65
2023-01-17T06:50:30.696Z,26.00
2023-01-17T06:53:17.158Z,26.03
2023-01-17T06:56:03.355Z,25.42
2023-01-17T06:58:52.926Z,24.33
2023-01-17T07:01:38.593Z,25.73
2023-01-17T07:04:24.132Z,26.13
2023-01-17T07:07:10.023Z,25.85
2023-01-17T07:09:55.782Z,24.00
2023-01-17T07:12:42.336Z,23.50
2023-01-17T07:15:28.471Z,21.48
2023-01-17T07:18:16.228Z,21.80
2023-01-17T07:21:01.636Z,22.38
2023-01-17T07:23:48.213Z,22.05
2023-01-17T07:26:33.802Z,22.42
2023-01-17T07:29:19.586Z,22.92
2023-01-17T07:32:08.835Z,22.73
2023-01-17T07:34:56.783Z,20.45
2023-01-17T07:37:50.552Z,21.00
2023-01-17T07:40:41.834Z,22.35
2023-01-17T07:43:28.560Z,23.65
2023-01-17T07:46:17.483Z,22.17
2023-01-17T07:49:03.510Z,23.43
2023-01-17T07:51:49.664Z,23.10
2023-01-17T07:54:35.613Z,24.05
2023-01-17T07:57:21.786Z,23.63
2023-01-17T08:00:08.564Z,25.90
2023-01-17T08:03:01.276Z,23.52
2023-01-17T08:05:54.690Z,25.92
2023-01-17T08:08:40.544Z,23.88
2023-01-17T08:11:26.632Z,23.70
2023-01-17T08:14:11.990Z,26.13
2023-01-17T08:17:17.842Z,25.95
2023-01-17T08:20:06.145Z,27.65
2023-01-17T08:22:56.542Z,29.10
2023-01-17T08:25:42.016Z,28.67
2023-01-17T08:28:27.460Z,26.38
2023-01-17T08:31:12.920Z,28.98
2023-01-17T08:33:58.752Z,27.37
2023-01-17T08:36:44.824Z,27.63
2023-01-17T08:39:30.461Z,29.23
2023-01-17T08:42:17.531Z,26.85
2023-01-17T08:45:05.096Z,27.10
2023-01-17T08:47:50.929Z,26.70
2023-01-17T08:50:36.817Z,27.65
2023-01-17T08:53:23.356Z,26.77
2023-01-17T08:56:10.458Z,26.30
2023-01-17T08:58:56.032Z,26.00
2023-01-17T09:01:41.930Z,25.50
2023-01-17T09:04:28.139Z,27.35
2023-01-17T09:07:15.155Z,24.63
2023-01-17T09:10:00.575Z,24.73
2023-01-17T09:12:46.080Z,23.55
2023-01-17T09:15:32.317Z,23.60
2023-01-17T09:18:17.885Z,24.45
2023-01-17T09:21:12.505Z,26.45
2023-01-17T09:23:58.364Z,23.17
2023-01-17T09:26:43.991Z,24.10
2023-01-17T09:29:30.574Z,21.88
2023-01-17T09:32:17.296Z,21.00
2023-01-17T09:35:07.303Z,19.95
2023-01-17T09:37:52.938Z,18.73
2023-01-17T09:40:48.794Z,17.77
2023-01-17T09:43:47.149Z,15.82
2023-01-17T09:46:39.625Z,14.65
2023-01-17T09:49:31.356Z,12.90
2023-01-17T09:52:21.086Z,11.87
2023-01-17T09:55:08.231Z,11.27
2023-01-17T09:58:09.029Z,10.73
2023-01-17T10:01:00.763Z,9.18
2023-01-17T10:04:13.397Z,8.50
2023-01-17T10:07:32.991Z,8.07
2023-01-17T10:10:18.640Z,7.40
2023-01-17T10:13:37.560Z,7.35
2023-01-17T10:16:35.744Z,5.90
2023-01-17T10:19:44.577Z,4.70
2023-01-17T10:22:36.750Z,4.68
2023-01-17T10:25:42.922Z,4.60
2023-01-17T10:28:46.997Z,4.78
2023-01-17T10:31:41.243Z,4.00
2023-01-17T10:34:53.007Z,4.13
2023-01-17T10:37:44.480Z,4.28
2023-01-17T10:40:40.855Z,4.40
2023-01-17T10:43:57.514Z,3.97
2023-01-17T10:47:05.829Z,3.20
2023-01-17T10:49:54.249Z,3.90
2023-01-17T10:53:00.693Z,3.67
2023-01-17T10:55:53.300Z,3.30
2023-01-17T10:58:39.183Z,4.05
2023-01-17T11:01:26.252Z,3.85
2023-01-17T11:04:29.657Z,4.40
2023-01-17T11:07:19.715Z,3.72
2023-01-17T11:10:05.791Z,3.20
2023-01-17T11:12:51.567Z,3.47
2023-01-17T11:15:39.736Z,3.88
2023-01-17T11:18:31.724Z,3.55
2023-01-17T11:21:25.409Z,3.40
2023-01-17T11:24:16.273Z,3.17
2023-01-17T11:27:05.568Z,3.08
2023-01-17T11:30:15.807Z,3.38
2023-01-17T11:33:07.100Z,2.85
2023-01-17T11:35:52.711Z,2.70
2023-01-17T11:38:38.093Z,3.15
2023-01-17T11:41:29.112Z,2.50
2023-01-17T11:44:23.238Z,2.92
2023-01-17T11:47:19.240Z,2.50
2023-01-17T11:50:26.102Z,2.78
2023-01-17T11:53:32.063Z,2.50
2023-01-17T11:56:31.513Z,3.47
2023-01-17T11:59:35.024Z,2.50
2023-01-17T12:02:47.952Z,3.35
2023-01-17T12:06:07.450Z,3.15
2023-01-17T12:09:28.528Z,2.72
2023-01-17T12:13:06.751Z,3.03
2023-01-17T12:16:28.849Z,3.00
2023-01-17T12:19:46.094Z,2.80
2023-01-17T12:23:13.751Z,3.00
2023-01-17T12:26:40.364Z,3.17
2023-01-17T12:29:46.909Z,3.00
2023-01-17T12:33:00.161Z,3.10
2023-01-17T12:35:55.643Z,3.30
2023-01-17T12:38:42.528Z,3.10
2023-01-17T12:41:35.367Z,2.97
2023-01-17T12:44:36.040Z,3.15
2023-01-17T12:47:22.284Z,3.28
2023-01-17T12:50:58.539Z,3.08
2023-01-17T12:54:12.967Z,2.97
2023-01-17T12:57:23.248Z,2.63
2023-01-17T13:00:22.869Z,2.47
2023-01-17T13:03:27.398Z,2.75
2023-01-17T13:06:26.383Z,2.53
2023-01-17T13:09:17.853Z,2.20
2023-01-17T13:12:07.780Z,1.90
2023-01-17T13:14:53.753Z,1.70
2023-01-17T13:17:50.019Z,1.45
2023-01-17T13:21:10.510Z,1.38
2023-01-17T13:24:15.781Z,1.60
2023-01-17T13:27:07.637Z,1.47
2023-01-17T13:30:22.044Z,1.38
2023-01-17T13:33:40.766Z,1.60
2023-01-17T13:36:51.704Z,1.48
2023-01-17T13:39:53.727Z,1.70
2023-01-17T13:42:45.544Z,1.65
2023-01-17T13:45:34.581Z,1.75
2023-01-17T13:48:25.866Z,1.90
2023-01-17T13:51:11.651Z,1.70
2023-01-17T13:53:58.805Z,1.65
2023-01-17T13:56:45.408Z,1.65
2023-01-17T13:59:30.904Z,1.70
2023-01-17T14:02:36.081Z,2.00
2023-01-17T14:05:30.677Z,1.90
2023-01-17T14:08:21.819Z,1.80
2023-01-17T14:11:12.048Z,1.92
2023-01-17T14:13:58.647Z,2.05
2023-01-17T14:16:46.294Z,2.15
2023-01-17T14:19:37.095Z,2.00
2023-01-17T14:22:39.657Z,2.20
2023-01-17T14:25:30.009Z,2.13
2023-01-17T14:28:26.231Z,1.90
2023-01-17T14:31:14.082Z,1.73
2023-01-17T14:34:12.798Z,1.85
2023-01-17T14:37:13.281Z,2.17
2023-01-17T14:40:00.698Z,3.00
2023-01-17T14:42:58.390Z,3.80
2023-01-17T14:45:46.004Z,4.77
2023-01-17T14:48:32.302Z,4.50
2023-01-17T14:51:24.799Z,7.10
2023-01-17T14:54:20.893Z,5.13
2023-01-17T14:57:29.128Z,10.20
2023-01-17T15:00:20.045Z,5.47
2023-01-17T15:03:10.591Z,5.90
2023-01-17T15:06:04.903Z,6.68
2023-01-17T15:08:55.520Z,4.73
2023-01-17T15:11:41.819Z,5.00
2023-01-17T15:14:33.906Z,3.88
2023-01-17T15:17:26.425Z,4.57
2023-01-17T15:20:16.613Z,5.70
2023-01-17T15:23:03.697Z,4.37
2023-01-17T15:25:52.139Z,3.70
2023-01-17T15:28:38.114Z,3.10
2023-01-17T15:31:42.210Z,3.05
2023-01-17T15:34:28.227Z,3.75
2023-01-17T15:37:41.700Z,3.28
2023-01-17T15:40:29.420Z,3.50
2023-01-17T15:43:20.807Z,3.85
2023-01-17T15:46:06.910Z,3.88
2023-01-17T15:48:53.107Z,3.45
2023-01-17T15:51:41.429Z,3.50
2023-01-17T15:54:55.889Z,3.40
2023-01-17T15:57:47.617Z,2.95
2023-01-17T16:00:41.895Z,3.40
2023-01-17T16:03:31.460Z,3.03
2023-01-17T16:06:45.671Z,3.08
2023-01-17T16:09:43.180Z,3.30
2023-01-17T16:12:29.023Z,3.22
2023-01-17T16:15:17.557Z,3.10
2023-01-17T16:18:24.358Z,3.15
2023-01-17T16:21:18.530Z,3.47
2023-01-17T16:24:09.524Z,3.80
2023-01-17T16:26:54.873Z,3.25
2023-01-17T16:29:41.996Z,3.13
2023-01-17T16:32:27.904Z,3.17
2023-01-17T16:35:21.912Z,3.35
2023-01-17T16:38:13.940Z,4.07
2023-01-17T16:40:59.963Z,4.22
2023-01-17T16:43:48.254Z,3.95
2023-01-17T16:46:38.450Z,3.90
2023-01-17T16:49:24.254Z,4.33
2023-01-17T16:52:09.799Z,4.35
2023-01-17T16:54:56.045Z,4.80
2023-01-17T16:57:42.544Z,4.70
2023-01-17T17:00:28.476Z,4.30
2023-01-17T17:03:17.180Z,4.57
2023-01-17T17:06:03.308Z,4.10
2023-01-17T17:08:49.050Z,4.35
2023-01-17T17:11:35.639Z,4.07
2023-01-17T17:14:21.638Z,4.07
2023-01-17T17:17:08.154Z,6.45
2023-01-17T17:19:54.405Z,5.93
2023-01-17T17:22:48.904Z,5.10
2023-01-17T17:25:34.569Z,4.30
2023-01-17T17:28:20.209Z,7.82
2023-01-17T17:31:10.421Z,6.20
2023-01-17T17:34:01.513Z,3.77
2023-01-17T17:36:47.487Z,4.75
2023-01-17T17:39:33.516Z,3.78
2023-01-17T17:42:19.986Z,3.20
2023-01-17T17:45:06.100Z,3.30
2023-01-17T17:47:52.284Z,3.13
2023-01-17T17:50:38.836Z,3.28
2023-01-17T17:53:25.570Z,2.97
2023-01-17T17:56:11.966Z,3.08
2023-01-17T17:58:59.472Z,2.92
2023-01-17T18:01:46.250Z,3.20
2023-01-17T18:04:33.011Z,3.13
2023-01-17T18:07:19.538Z,3.20
2023-01-17T18:10:05.614Z,4.28
2023-01-17T18:12:51.527Z,3.50
2023-01-17T18:15:37.872Z,3.58
2023-01-17T18:18:24.828Z,4.10
2023-01-17T18:21:14.891Z,3.50
2023-01-17T18:24:03.244Z,4.03
2023-01-17T18:26:55.845Z,3.53
2023-01-17T18:29:41.647Z,4.10
2023-01-17T18:32:27.603Z,4.18
2023-01-17T18:35:13.661Z,4.18
2023-01-17T18:37:59.767Z,3.63
2023-01-17T18:40:45.559Z,3.80
2023-01-17T18:43:31.836Z,4.40
2023-01-17T18:46:23.348Z,5.55
2023-01-17T18:49:11.632Z,6.25
2023-01-17T18:51:57.478Z,6.32
2023-01-17T18:54:44.036Z,5.13
2023-01-17T18:57:30.224Z,4.93
2023-01-17T19:00:16.601Z,5.45
2023-01-17T19:03:02.654Z,5.13
2023-01-17T19:05:48.569Z,4.82
2023-01-17T19:08:35.696Z,5.40
2023-01-17T19:11:22.992Z,5.20
2023-01-17T19:14:09.963Z,4.70
2023-01-17T19:16:57.117Z,4.50
2023-01-17T19:19:43.308Z,5.00
2023-01-17T19:22:28.975Z,5.50
2023-01-17T19:25:14.999Z,5.00
2023-01-17T19:28:01.259Z,5.00
2023-01-17T19:30:46.870Z,4.72
2023-01-17T19:33:34.761Z,5.75
2023-01-17T19:36:23.379Z,5.78
2023-01-17T19:39:09.666Z,4.95
2023-01-17T19:41:55.615Z,4.97
2023-01-17T19:44:44.327Z,4.50
2023-01-17T19:47:29.755Z,4.73
2023-01-17T19:50:17.056Z,4.78
2023-01-17T19:53:02.947Z,5.15
2023-01-17T19:55:48.866Z,5.63
2023-01-17T19:58:35.412Z,4.78
2023-01-17T20:01:24.697Z,4.90
2023-01-17T20:04:10.640Z,5.40
2023-01-17T20:06:56.242Z,4.93
2023-01-17T20:09:42.369Z,5.70
2023-01-17T20:12:28.283Z,5.30
2023-01-17T20:15:14.041Z,5.50
2023-01-17T20:18:02.364Z,5.75
2023-01-17T20:20:57.074Z,5.88
2023-01-17T20:23:47.035Z,5.57
2023-01-17T20:26:35.345Z,5.68
2023-01-17T20:29:20.867Z,5.90
2023-01-17T20:32:08.019Z,7.00
2023-01-17T20:34:54.535Z,6.47
2023-01-17T20:37:40.349Z,8.90
2023-01-17T20:40:26.710Z,7.38
2023-01-17T20:43:14.288Z,7.53
2023-01-17T20:46:00.392Z,7.00
2023-01-17T20:48:52.434Z,7.90
2023-01-17T20:51:40.104Z,8.18
2023-01-17T20:54:27.558Z,7.70
2023-01-17T20:57:13.965Z,8.52
2023-01-17T21:00:00.475Z,7.55
2023-01-17T21:02:47.075Z,7.65
2023-01-17T21:05:37.965Z,8.05
2023-01-17T21:08:28.151Z,8.20
2023-01-17T21:11:17.927Z,7.68
2023-01-17T21:14:07.839Z,7.93
2023-01-17T21:16:54.068Z,8.02
2023-01-17T21:19:41.814Z,8.10
2023-01-17T21:22:29.330Z,8.82
2023-01-17T21:25:15.110Z,8.07
2023-01-17T21:28:01.126Z,8.15
2023-01-17T21:30:49.814Z,7.97
2023-01-17T21:33:36.544Z,9.15
2023-01-17T21:36:25.678Z,8.48
2023-01-17T21:39:15.849Z,9.15
2023-01-17T21:42:01.611Z,8.70
2023-01-17T21:44:49.364Z,8.93
2023-01-17T21:47:35.639Z,9.75
2023-01-17T21:50:32.810Z,10.38
2023-01-17T21:53:19.646Z,11.32
2023-01-17T21:56:27.154Z,11.60
2023-01-17T21:59:12.967Z,11.70
2023-01-17T22:01:59.655Z,12.60
2023-01-17T22:04:45.392Z,12.95
2023-01-17T22:07:31.761Z,13.68
2023-01-17T22:10:17.944Z,13.73
2023-01-17T22:13:03.692Z,12.87
2023-01-17T22:15:59.706Z,13.45
2023-01-17T22:18:46.744Z,12.52
2023-01-17T22:21:32.070Z,13.45
2023-01-17T22:24:18.276Z,12.35
2023-01-17T22:27:04.642Z,12.57
2023-01-17T22:29:50.526Z,12.02
2023-01-17T22:32:36.411Z,12.10
2023-01-17T22:35:23.650Z,11.95
2023-01-17T22:38:09.448Z,11.27
2023-01-17T22:41:05.366Z,11.35
2023-01-17T22:43:53.311Z,11.40
2023-01-17T22:46:41.417Z,10.90
2023-01-17T22:49:28.154Z,10.57
2023-01-17T22:52:13.999Z,11.52
2023-01-17T22:54:59.364Z,10.27
2023-01-17T22:57:46.625Z,10.57
2023-01-17T23:00:33.249Z,10.93
2023-01-17T23:03:19.452Z,11.57
2023-01-17T23:06:12.987Z,11.23
2023-01-17T23:09:02.370Z,10.48
2023-01-17T23:11:52.602Z,11.47
2023-01-17T23:14:57.165Z,10.43
2023-01-17T23:18:01.840Z,10.35
2023-01-17T23:20:47.235Z,10.93
2023-01-17T23:23:33.260Z,10.27
2023-01-17T23:26:19.594Z,10.52
2023-01-17T23:29:05.502Z,9.50
2023-01-17T23:31:51.299Z,9.07
2023-01-17T23:34:36.906Z,10.05
2023-01-17T23:37:47.120Z,9.57
2023-01-17T23:40:34.825Z,9.35
2023-01-17T23:43:23.156Z,8.90
2023-01-17T23:46:11.804Z,9.15
2023-01-17T23:48:57.719Z,8.85
2023-01-17T23:51:43.538Z,8.27
2023-01-17T23:54:31.924Z,8.05
2023-01-17T23:57:20.340Z,7.03
